»·PEaware :: N74KW 49X-L52

N74KW :: 49X-L52

FLIGHT INFORMATION

Flight Status: Arrived
Operator: Privately registered:
United States
More flights under this callsign
Pilot: Charles C. (26995)
Aircraft: MCDONNELL-DOUGLAS SKYTRAIN C-47
(DC3)
More flights by this aircraft type
Origin: 49X Chemehuevi Valley
United States
Destination: L52 Oceano Co
United States
More flights between these airports :: More routes between these airports
Route: +HEC EDW FLW
File this flight plan on PilotEdge
Remarks:
Altitude:
(Current/Filed)
6,500ft
Speed:
(Current/Filed)
150kts
Departed: 17-Aug-20 09:19 AM
Arrived: 17-Aug-20 11:22 AM
Distance/Time
Traveled:
307nm/2:03
Distance/Time
To Go:
Arrived

Flight Plot

Page will automatically refresh every two minutes.

Flight plan parsing failed; only flown route is shown


Map Options




Map Legend


Flown Route
Filed Route
Departure Airport
Arrival Airport
Navaid (VOR, NDB)
Fix

Horizontal Profiles

Position Reports

Time Latitude Longitude Heading Altitude Ground
Speed
17-Aug-20 09:14 34.529417 -114.430281 179 625ft 0kts
17-Aug-20 09:15 34.529417 -114.430281 179 625ft 0kts
17-Aug-20 09:16 34.532164 -114.430960 359 626ft 28kts
17-Aug-20 09:17 34.535644 -114.431673 278 629ft 9kts
17-Aug-20 09:18 34.532191 -114.431968 180 629ft 56kts
17-Aug-20 09:19 34.503495 -114.436530 224 1017ft 127kts
17-Aug-20 09:20 34.505399 -114.483215 274 1533ft 141kts
17-Aug-20 09:21 34.508685 -114.530127 284 2220ft 136kts
17-Aug-20 09:22 34.517612 -114.573382 280 2941ft 129kts
17-Aug-20 09:23 34.524697 -114.616185 279 3592ft 131kts
17-Aug-20 09:24 34.531553 -114.660102 279 4304ft 131kts
17-Aug-20 09:25 34.538504 -114.705361 279 4880ft 143kts
17-Aug-20 09:26 34.545749 -114.752795 280 5588ft 139kts
17-Aug-20 09:27 34.552679 -114.798343 280 6290ft 136kts
17-Aug-20 09:28 34.560244 -114.848136 280 6403ft 161kts
17-Aug-20 09:29 34.568436 -114.902203 280 6400ft 162kts
17-Aug-20 09:30 34.576513 -114.955744 280 6400ft 160kts
17-Aug-20 09:31 34.584524 -115.008980 280 6400ft 160kts
17-Aug-20 09:32 34.592507 -115.062186 280 6400ft 160kts
17-Aug-20 09:33 34.600467 -115.115407 280 6400ft 160kts
17-Aug-20 09:34 34.608403 -115.168627 280 6400ft 160kts
17-Aug-20 09:35 34.616333 -115.221953 280 6406ft 160kts
17-Aug-20 09:36 34.624042 -115.274024 280 6422ft 154kts
17-Aug-20 09:37 34.631573 -115.325023 280 6437ft 152kts
17-Aug-20 09:38 34.639038 -115.375717 280 6449ft 152kts
17-Aug-20 09:39 34.646450 -115.426206 280 6458ft 152kts
17-Aug-20 09:40 34.653848 -115.476754 280 6467ft 152kts
17-Aug-20 09:41 34.661237 -115.527391 281 6480ft 152kts
17-Aug-20 09:42 34.668618 -115.578132 281 6495ft 152kts
17-Aug-20 09:43 34.675958 -115.628732 281 6513ft 152kts
17-Aug-20 09:44 34.683405 -115.680224 280 6534ft 153kts
17-Aug-20 09:45 34.690778 -115.731356 280 6538ft 154kts
17-Aug-20 09:46 34.698169 -115.782783 280 6537ft 154kts
17-Aug-20 09:47 34.705558 -115.834351 280 6537ft 155kts
17-Aug-20 09:48 34.712936 -115.886006 280 6537ft 155kts
17-Aug-20 09:49 34.720303 -115.937747 280 6537ft 155kts
17-Aug-20 09:50 34.727636 -115.989409 280 6537ft 155kts
17-Aug-20 09:51 34.734931 -116.040966 280 6537ft 155kts
17-Aug-20 09:52 34.742230 -116.092718 280 6537ft 155kts
17-Aug-20 09:53 34.749495 -116.144394 280 6537ft 155kts
17-Aug-20 09:54 34.756770 -116.196327 280 6530ft 155kts
17-Aug-20 09:55 34.764027 -116.248280 280 6516ft 155kts
17-Aug-20 09:56 34.771233 -116.300023 281 6502ft 155kts
17-Aug-20 09:57 34.779272 -116.351627 285 6487ft 154kts
17-Aug-20 09:58 34.787930 -116.402761 282 6474ft 154kts
17-Aug-20 09:59 34.795322 -116.454284 281 6472ft 153kts
17-Aug-20 10:00 34.802960 -116.505465 282 6473ft 153kts
17-Aug-20 10:01 34.810592 -116.556463 282 6473ft 153kts
17-Aug-20 10:02 34.818197 -116.607431 282 6473ft 153kts
17-Aug-20 10:03 34.825927 -116.659431 281 6474ft 156kts
17-Aug-20 10:04 34.833742 -116.712145 281 6473ft 157kts
17-Aug-20 10:05 34.841492 -116.764576 281 6473ft 157kts
17-Aug-20 10:06 34.849244 -116.817160 281 6474ft 158kts
17-Aug-20 10:07 34.857093 -116.870514 281 6473ft 159kts
17-Aug-20 10:08 34.864932 -116.924122 281 6474ft 161kts
17-Aug-20 10:09 34.872785 -116.977947 281 6475ft 162kts
17-Aug-20 10:10 34.880668 -117.032119 281 6473ft 162kts
17-Aug-20 10:11 34.888496 -117.086088 281 6473ft 162kts
17-Aug-20 10:12 34.896333 -117.140276 281 6476ft 162kts
17-Aug-20 10:13 34.904088 -117.194060 281 6497ft 161kts
17-Aug-20 10:14 34.912063 -117.249544 281 6369ft 168kts
17-Aug-20 10:15 34.919995 -117.304937 280 6387ft 164kts
17-Aug-20 10:16 34.927824 -117.359806 280 6407ft 164kts
17-Aug-20 10:17 34.935606 -117.414626 280 6409ft 164kts
17-Aug-20 10:18 34.943398 -117.469626 280 6409ft 164kts
17-Aug-20 10:19 34.951073 -117.523968 280 6409ft 161kts
17-Aug-20 10:20 34.958661 -117.577879 280 6409ft 160kts
17-Aug-20 10:21 34.966163 -117.631397 280 6407ft 160kts
17-Aug-20 10:22 34.973684 -117.685195 279 6402ft 160kts
17-Aug-20 10:24 34.980589 -117.738821 275 6399ft 160kts
17-Aug-20 10:25 34.983901 -117.793150 274 6393ft 161kts
17-Aug-20 10:26 34.987113 -117.847984 274 6391ft 162kts
17-Aug-20 10:27 34.990304 -117.902593 274 6392ft 163kts
17-Aug-20 10:28 34.994856 -117.957790 278 6393ft 163kts
17-Aug-20 10:29 34.999215 -118.012936 275 6395ft 163kts
17-Aug-20 10:30 35.002555 -118.068158 274 6396ft 163kts
17-Aug-20 10:31 35.005718 -118.123499 274 6410ft 162kts
17-Aug-20 10:32 35.008787 -118.178259 274 6432ft 160kts
17-Aug-20 10:33 35.011801 -118.232416 274 6455ft 159kts
17-Aug-20 10:34 35.014853 -118.287634 274 6785ft 163kts
17-Aug-20 10:35 35.018177 -118.341921 266 7320ft 160kts
17-Aug-20 10:36 35.008171 -118.394545 256 7837ft 158kts
17-Aug-20 10:37 34.999520 -118.447134 262 8321ft 158kts
17-Aug-20 10:37 34.998966 -118.492044 273 8573ft 165kts
17-Aug-20 10:39 35.001576 -118.560290 272 8579ft 175kts
17-Aug-20 10:40 35.015262 -118.616157 296 8582ft 173kts
17-Aug-20 10:41 35.036548 -118.668305 296 8581ft 173kts
17-Aug-20 10:41 35.046201 -118.715174 276 8577ft 173kts
17-Aug-20 10:43 35.043459 -118.783105 267 8576ft 172kts
17-Aug-20 10:43 35.043994 -118.831904 272 8552ft 174kts
17-Aug-20 10:44 35.046557 -118.891329 273 8490ft 175kts
17-Aug-20 10:45 35.049455 -118.950773 273 8429ft 176kts
17-Aug-20 10:46 35.052390 -119.010522 273 8371ft 176kts
17-Aug-20 10:47 35.055298 -119.070159 273 8334ft 175kts
17-Aug-20 10:48 35.058150 -119.129237 273 8334ft 173kts
17-Aug-20 10:49 35.060963 -119.188108 273 8334ft 173kts
17-Aug-20 10:50 35.063741 -119.246862 273 8334ft 173kts
17-Aug-20 10:51 35.066490 -119.305601 273 8334ft 173kts
17-Aug-20 10:52 35.069211 -119.364365 273 8334ft 173kts
17-Aug-20 10:53 35.071886 -119.423022 273 8336ft 173kts
17-Aug-20 10:54 35.074561 -119.481696 273 8334ft 173kts
17-Aug-20 10:55 35.077192 -119.540371 273 8335ft 173kts
17-Aug-20 10:56 35.079803 -119.599190 273 8340ft 173kts
17-Aug-20 10:57 35.082379 -119.657861 273 8344ft 173kts
17-Aug-20 10:58 35.084928 -119.716615 273 8350ft 173kts
17-Aug-20 10:59 35.087440 -119.775127 273 8353ft 172kts
17-Aug-20 11:00 35.089918 -119.833473 273 8353ft 172kts
17-Aug-20 11:01 35.091594 -119.891863 271 8354ft 172kts
17-Aug-20 11:02 35.092343 -119.950291 271 8355ft 172kts
17-Aug-20 11:03 35.093053 -120.008639 271 8356ft 172kts
17-Aug-20 11:04 35.094625 -120.067057 272 8260ft 177kts
17-Aug-20 11:05 35.095496 -120.130513 271 7457ft 196kts
17-Aug-20 11:06 35.096251 -120.197308 271 6312ft 198kts
17-Aug-20 11:07 35.096743 -120.263632 273 5187ft 195kts
17-Aug-20 11:08 35.097583 -120.329601 271 3566ft 212kts
17-Aug-20 11:09 35.098201 -120.396644 265 2887ft 171kts
17-Aug-20 11:10 35.094097 -120.452561 269 2764ft 161kts
17-Aug-20 11:11 35.098251 -120.499490 281 2404ft 118kts
17-Aug-20 11:12 35.103070 -120.540010 274 1417ft 122kts
17-Aug-20 11:13 35.108245 -120.575170 282 729ft 97kts
17-Aug-20 11:14 35.103526 -120.605213 293 325ft 105kts
17-Aug-20 11:15 35.109332 -120.595875 327 585ft 92kts
17-Aug-20 11:16 35.116324 -120.631538 272 604ft 100kts
17-Aug-20 11:17 35.103641 -120.625451 123 756ft 111kts
17-Aug-20 11:18 35.085883 -120.608807 77 609ft 80kts
17-Aug-20 11:19 35.088709 -120.628432 255 626ft 93kts
17-Aug-20 11:20 35.099365 -120.640637 33 494ft 96kts
17-Aug-20 11:21 35.100331 -120.620047 113 21ft 13kts
17-Aug-20 11:22 35.100547 -120.621366 302 21ft 16kts
17-Aug-20 11:23 35.102956 -120.623899 303 19ft 13kts
17-Aug-20 11:24 35.103619 -120.624387 284 19ft 0kts
17-Aug-20 11:25 35.103619 -120.624387 284 19ft 0kts
17-Aug-20 11:26 35.103619 -120.624387 284 19ft 0kts
17-Aug-20 11:27 35.103619 -120.624387 284 19ft 0kts
17-Aug-20 11:28 35.103619 -120.624387 284 19ft 0kts
17-Aug-20 11:29 35.103619 -120.624387 284 19ft 0kts
17-Aug-20 11:30 35.103619 -120.624387 284 19ft 0kts
17-Aug-20 11:31 35.103619 -120.624387 284 19ft 0kts
17-Aug-20 11:32 35.103619 -120.624387 284 19ft 0kts
17-Aug-20 11:33 35.103619 -120.624387 284 19ft 0kts
17-Aug-20 11:34 35.103619 -120.624387 284 19ft 0kts
17-Aug-20 11:35 35.103619 -120.624387 284 19ft 0kts

Navigation Log

Ident Type
Flight plan parsing failed, navigation log unavailable